Resultados de RENTAL PROVA 3 - 19:30
KARTODROMO INTERNACIONAL GRANJA VIANA KGV RACE TRACKS CIRCUITO - 105
Resultados de RENTAL - PROVA 3 - 19:30


Pos No. Nome Classe Comentários Voltas Pontos Total Tempo Melhor Tempo na volta. Diff Espaço Melhor Veloc. Pitstops
1 031 VANDERLEI VASQUES RENTAL 20 0 15:25.868 43.388 11 60,570
2 040 MARCOS ALEMAO RENTAL 20 0 15:26.782 43.260 11 0.914 0.914 60,749
3 018 BRUNO BATISTA RED KILLER RENTAL 20 0 15:37.205 44.071 18 11.337 10.423 59,631
4 025 THIAGO MILANESI DO PRADO RENTAL 20 0 15:46.675 44.534 13 20.807 9.470 59,011
5 036 GUILHERME CREATTO MATSUMOTO RENTAL 20 0 16:05.539 44.488 20 39.671 18.864 59,072
6 037 RICARDO SOUSA RENTAL 20 0 16:08.212 44.475 3 42.344 2.673 59,089
7 010 FERNANDO DE MATTOS LOPES DA SI RENTAL 20 0 16:09.784 45.285 10 43.916 1.572 58,032
8 021 MICHEL GEIGER DAMASCENO RENTAL 20 0 16:10.210 45.602 16 44.342 0.426 57,629
9 017 MILTON VIEIRA RED KILLER RENTAL ADV 20 0 16:15.080 44.574 3 49.212 4.870 58,958
10 026 IGOR PAIXÃO RENTAL 19 0 15:30.857 45.255 4 1 Volta 1 Volta 58,071
11 035 RAFAEL OWENS RENTAL 19 0 15:35.724 45.854 5 1 Volta 4.867 57,312
12 016 MURILO RENTAL 19 0 15:36.461 45.553 10 1 Volta 0.737 57,691
13 003 GUILHERME KITADAI RENTAL 19 0 15:47.176 45.916 7 1 Volta 10.715 57,235
14 004 RODRIGO BATISTA RED KILLER RENTAL 19 0 15:51.666 45.409 11 1 Volta 4.490 57,874
15 011 DEWANDRE HUGO MACEDO RENTAL 19 0 15:57.388 45.130 4 1 Volta 5.722 58,232
16 023 RODOLFO ALVES RODRIGUES RENTAL 19 0 16:02.906 45.822 15 1 Volta 5.518 57,352
17 009 RODRIGO ALVES RODRIGUES RENTAL TP 19 0 16:03.944 45.046 15 1 Volta 1.038 58,340 1
18 012 CARLOS MATSUMOTO RENTAL ADV 18 0 15:38.380 45.140 15 2 Voltas 1 Volta 58,219
19 024 GUILHERME OWENS RENTAL 18 0 15:45.252 47.360 17 2 Voltas 6.872 55,490
20 038 DOUGLAS MARQUES RENTAL 18 0 16:09.890 49.556 14 2 Voltas 24.638 53,031
21 030 LINCOLN PEREIRA DE SOUSA RENTAL 18 0 16:12.913 48.330 6 2 Voltas 3.023 54,376
22 013 TANIA PEREIRA DE SOUSA RENTAL 14 0 13:54.815 50.918 2 6 Voltas 4 Voltas 51,612
Gerada em 09/08/2019 20:34